Time;durP1;ratioP1;P1;durP2;ratioP2;P2;SDS_P1;SDS_P2;PMS_P1;PMS_P2;Temp;Humidity;BMP_temperature;BMP_pressure;BME280_temperature;BME280_humidity;BME280_pressure;Samples;Min_cycle;Max_cycle;Signal;HPM_P1;HPM_P2
2023/03/22 00:00:27;;;;;;;11.48;2.08;;;10.60;99.90;;;;;;5047939;28;20029;-55
2023/03/22 00:02:55;;;;;;;13.68;1.75;;;10.60;99.90;;;;;;5046686;28;20074;-45
2023/03/22 00:05:21;;;;;;;18.67;2.15;;;10.60;99.90;;;;;;5048395;28;20033;-44
2023/03/22 00:07:52;;;;;;;15.18;2.30;;;10.60;99.90;;;;;;5049328;28;20021;-48
2023/03/22 00:10:19;;;;;;;18.52;2.35;;;10.60;99.90;;;;;;5049692;28;20021;-46
2023/03/22 00:12:44;;;;;;;12.43;2.03;;;10.50;99.90;;;;;;5048434;28;20057;-47
2023/03/22 00:15:10;;;;;;;14.82;2.20;;;10.50;99.90;;;;;;5048816;28;20025;-44
2023/03/22 00:17:37;;;;;;;11.63;2.60;;;10.50;99.90;;;;;;5048551;28;20044;-47
2023/03/22 00:20:06;;;;;;;11.48;2.20;;;10.50;99.90;;;;;;5049171;28;20393;-45
2023/03/22 00:22:32;;;;;;;12.32;1.80;;;10.50;99.90;;;;;;5048236;28;20053;-45
2023/03/22 00:24:58;;;;;;;13.73;3.03;;;10.50;99.90;;;;;;5031593;28;20028;-44
2023/03/22 00:27:23;;;;;;;10.82;2.25;;;10.50;99.90;;;;;;5031385;28;20032;-45
2023/03/22 00:29:52;;;;;;;13.25;2.22;;;10.50;99.90;;;;;;5030732;28;20021;-48
2023/03/22 00:32:18;;;;;;;10.70;1.97;;;10.40;99.90;;;;;;5049404;28;20021;-47
2023/03/22 00:34:43;;;;;;;16.60;1.98;;;10.40;99.90;;;;;;5047086;28;20021;-50
2023/03/22 00:37:09;;;;;;;13.73;3.13;;;10.40;99.90;;;;;;5047375;28;20102;-49
2023/03/22 00:39:35;;;;;;;13.80;2.45;;;10.40;99.90;;;;;;5010503;28;20064;-47
2023/03/22 00:42:03;;;;;;;14.98;2.38;;;10.40;99.90;;;;;;5048794;28;20119;-46
2023/03/22 00:44:29;;;;;;;13.15;1.83;;;10.40;99.90;;;;;;5050060;28;20021;-51
2023/03/22 00:46:55;;;;;;;16.48;3.08;;;10.40;99.90;;;;;;5046242;28;20608;-43
2023/03/22 00:49:20;;;;;;;18.63;2.80;;;10.40;99.90;;;;;;5024712;28;20049;-47
2023/03/22 00:51:46;;;;;;;16.92;3.15;;;10.40;99.90;;;;;;5049447;28;20067;-48
2023/03/22 00:54:11;;;;;;;15.20;2.25;;;10.40;99.90;;;;;;5050858;28;20071;-43
2023/03/22 00:56:37;;;;;;;14.98;2.15;;;10.50;99.90;;;;;;5031483;28;20017;-45
2023/03/22 00:59:03;;;;;;;16.25;2.22;;;10.40;99.90;;;;;;5050301;28;20037;-44
2023/03/22 01:01:29;;;;;;;13.50;2.20;;;10.40;99.90;;;;;;5050431;28;20083;-44
2023/03/22 01:03:56;;;;;;;17.13;2.28;;;10.40;99.90;;;;;;5051235;28;20029;-45
2023/03/22 01:06:21;;;;;;;13.80;2.20;;;10.40;99.90;;;;;;5051586;28;20108;-49
2023/03/22 01:08:49;;;;;;;14.90;3.33;;;10.40;99.90;;;;;;5051491;28;20116;-45
2023/03/22 01:11:15;;;;;;;12.95;2.33;;;10.40;99.90;;;;;;5029785;28;20116;-44
2023/03/22 01:13:41;;;;;;;13.85;2.60;;;10.40;99.90;;;;;;5052150;28;20025;-47
2023/03/22 01:16:08;;;;;;;19.63;2.83;;;10.40;99.90;;;;;;5053114;28;20443;-45
2023/03/22 01:18:34;;;;;;;15.73;2.13;;;10.40;99.90;;;;;;5052619;28;20395;-47
2023/03/22 01:21:00;;;;;;;18.50;3.38;;;10.40;99.90;;;;;;5050919;28;20446;-46
2023/03/22 01:23:26;;;;;;;14.90;2.70;;;10.40;99.90;;;;;;5053068;28;20394;-44
2023/03/22 01:25:52;;;;;;;15.55;2.20;;;10.40;99.90;;;;;;5033849;28;20017;-52
2023/03/22 01:28:18;;;;;;;23.10;2.67;;;10.40;99.90;;;;;;5049443;28;20017;-44
2023/03/22 01:30:43;;;;;;;16.38;2.38;;;10.30;99.90;;;;;;5052405;28;20028;-48
2023/03/22 01:33:09;;;;;;;18.33;2.88;;;10.30;99.90;;;;;;5051022;28;20013;-45
2023/03/22 01:35:35;;;;;;;19.75;2.83;;;10.30;99.90;;;;;;5052271;28;20053;-49
2023/03/22 01:38:01;;;;;;;13.38;2.20;;;10.40;99.90;;;;;;5036012;28;20366;-45
2023/03/22 01:40:27;;;;;;;15.15;2.45;;;10.30;99.90;;;;;;5051294;28;20029;-48
2023/03/22 01:42:54;;;;;;;13.23;2.22;;;10.30;99.90;;;;;;5052667;28;20473;-46
2023/03/22 01:45:37;;;;;;;13.48;1.98;;;10.30;99.90;;;;;;5050885;28;20029;-46
2023/03/22 01:48:20;;;;;;;13.73;2.45;;;10.30;99.90;;;;;;5050649;28;20033;-45
2023/03/22 01:51:12;;;;;;;17.80;2.60;;;10.30;99.90;;;;;;5049926;28;20028;-50
2023/03/22 01:53:48;;;;;;;15.90;2.10;;;10.30;99.90;;;;;;5041488;28;20029;-48
2023/03/22 01:56:15;;;;;;;17.35;2.80;;;10.30;99.90;;;;;;5051411;28;20079;-44
2023/03/22 01:58:41;;;;;;;17.55;2.63;;;10.30;99.90;;;;;;5049570;28;20022;-44
2023/03/22 02:01:09;;;;;;;11.25;2.72;;;10.30;99.90;;;;;;5035397;28;20029;-53
2023/03/22 02:03:56;;;;;;;21.17;2.67;;;10.30;99.90;;;;;;5051155;28;20036;-48
2023/03/22 02:06:22;;;;;;;16.98;2.85;;;10.30;99.90;;;;;;5050559;28;20021;-45
2023/03/22 02:08:51;;;;;;;19.17;2.60;;;10.30;99.90;;;;;;5051592;28;20029;-46
2023/03/22 02:11:26;;;;;;;22.65;3.65;;;10.30;99.90;;;;;;5031627;28;20044;-48
2023/03/22 02:14:24;;;;;;;18.92;2.53;;;10.30;99.90;;;;;;5052773;28;20024;-54
2023/03/22 02:17:07;;;;;;;20.42;2.90;;;10.20;99.90;;;;;;5050961;28;20029;-51
2023/03/22 02:20:09;;;;;;;22.73;3.45;;;10.20;99.90;;;;;;5047705;28;20044;-55
2023/03/22 02:22:59;;;;;;;13.65;2.10;;;10.20;99.90;;;;;;5046508;28;20120;-51
2023/03/22 02:25:43;;;;;;;22.77;2.47;;;10.10;99.90;;;;;;5042575;28;20057;-54
2023/03/22 02:28:29;;;;;;;15.50;2.85;;;10.10;99.90;;;;;;5050204;28;20025;-52
2023/03/22 02:31:30;;;;;;;17.23;2.70;;;10.00;99.90;;;;;;5051033;28;20140;-46
2023/03/22 02:34:07;;;;;;;24.85;4.60;;;10.00;99.90;;;;;;5045001;28;20030;-48
2023/03/22 02:36:51;;;;;;;16.10;2.80;;;9.90;99.90;;;;;;5051432;28;20397;-44
2023/03/22 02:39:29;;;;;;;16.23;2.60;;;9.90;99.90;;;;;;5050725;28;20027;-50
2023/03/22 02:42:04;;;;;;;16.67;2.72;;;9.90;99.90;;;;;;5051281;28;20490;-51
2023/03/22 02:44:35;;;;;;;18.85;3.65;;;9.90;99.90;;;;;;5050221;28;20025;-55
2023/03/22 02:47:03;;;;;;;19.13;3.10;;;9.80;99.90;;;;;;5048785;28;20040;-46
2023/03/22 02:49:41;;;;;;;19.20;2.90;;;9.80;99.90;;;;;;5049826;28;20021;-57
2023/03/22 02:52:38;;;;;;;18.13;2.60;;;9.80;99.90;;;;;;5032958;28;20017;-45
2023/03/22 02:55:13;;;;;;;27.35;3.40;;;9.80;99.90;;;;;;5050059;28;20203;-53
2023/03/22 02:57:56;;;;;;;23.95;3.47;;;9.80;99.90;;;;;;5051813;28;20013;-56
2023/03/22 03:00:24;;;;;;;22.90;3.42;;;9.80;99.90;;;;;;5050631;28;20111;-45
2023/03/22 03:03:10;;;;;;;22.35;3.38;;;9.80;99.90;;;;;;5049581;28;20059;-44
2023/03/22 03:05:40;;;;;;;19.38;3.47;;;9.80;99.90;;;;;;5049573;28;20063;-45
2023/03/22 03:08:08;;;;;;;26.00;3.33;;;9.70;99.90;;;;;;5049417;28;20039;-52
2023/03/22 03:10:34;;;;;;;19.38;2.92;;;9.70;99.90;;;;;;5032596;28;20025;-45
2023/03/22 03:13:00;;;;;;;19.95;2.50;;;9.70;99.90;;;;;;5050074;28;20025;-47
2023/03/22 03:15:26;;;;;;;28.25;3.10;;;9.70;99.90;;;;;;5051284;28;20398;-47
2023/03/22 03:18:44;;;;;;;28.60;3.25;;;9.80;99.90;;;;;;5048301;28;20052;-45
2023/03/22 03:21:44;;;;;;;26.17;3.35;;;9.80;99.90;;;;;;4939915;28;20055;-44
2023/03/22 03:24:28;;;;;;;34.53;3.83;;;9.70;99.90;;;;;;4939100;28;20522;-48
2023/03/22 03:27:01;;;;;;;18.67;3.10;;;9.70;99.90;;;;;;5041520;28;20051;-49
2023/03/22 03:29:45;;;;;;;24.65;2.88;;;9.70;99.90;;;;;;5051027;28;20413;-48
2023/03/22 03:32:27;;;;;;;26.60;4.10;;;9.70;99.90;;;;;;5051317;28;20056;-48
2023/03/22 03:35:21;;;;;;;25.67;3.10;;;9.70;99.90;;;;;;5051094;28;20485;-47
2023/03/22 03:38:00;;;;;;;23.15;3.10;;;9.70;99.90;;;;;;5044260;28;20053;-47
2023/03/22 03:40:40;;;;;;;24.02;3.05;;;9.70;99.90;;;;;;5033297;28;20044;-52
2023/03/22 03:43:07;;;;;;;28.92;3.92;;;9.70;99.90;;;;;;5051333;28;20040;-56
2023/03/22 03:45:35;;;;;;;23.35;4.03;;;9.70;99.90;;;;;;5051034;28;20442;-52
2023/03/22 03:48:05;;;;;;;24.20;3.40;;;9.70;99.90;;;;;;5051499;28;20024;-46
2023/03/22 03:50:31;;;;;;;23.27;4.13;;;9.70;99.90;;;;;;5051425;28;20120;-44
2023/03/22 03:52:57;;;;;;;18.77;2.65;;;9.70;99.90;;;;;;5051307;28;20035;-44
2023/03/22 03:55:25;;;;;;;24.45;4.18;;;9.70;99.90;;;;;;5051355;28;20029;-44
2023/03/22 03:57:50;;;;;;;18.10;3.13;;;9.70;99.90;;;;;;5051583;28;20014;-44
2023/03/22 04:00:16;;;;;;;18.75;2.58;;;9.70;99.90;;;;;;5050976;28;20021;-47
2023/03/22 04:02:43;;;;;;;24.10;3.42;;;9.70;99.90;;;;;;5050565;28;20025;-55
2023/03/22 04:05:10;;;;;;;22.75;3.38;;;9.70;99.90;;;;;;5049421;28;20027;-49
2023/03/22 04:07:36;;;;;;;25.70;3.38;;;9.70;99.90;;;;;;5032979;28;20413;-45
2023/03/22 04:10:04;;;;;;;31.48;3.42;;;9.70;99.90;;;;;;5050869;28;20013;-46
2023/03/22 04:12:31;;;;;;;23.30;2.88;;;9.70;99.90;;;;;;5050910;28;20025;-47
2023/03/22 04:14:57;;;;;;;25.85;3.35;;;9.60;99.90;;;;;;5032508;28;20592;-50
2023/03/22 04:17:24;;;;;;;19.20;2.90;;;9.60;99.90;;;;;;5050561;28;20056;-48
2023/03/22 04:19:52;;;;;;;22.35;3.13;;;9.60;99.90;;;;;;5050862;28;20048;-51
2023/03/22 04:22:18;;;;;;;20.67;3.63;;;9.70;99.90;;;;;;5050622;28;20426;-53
2023/03/22 04:24:48;;;;;;;21.02;3.10;;;9.60;99.90;;;;;;5050631;28;20032;-45
2023/03/22 04:27:15;;;;;;;23.50;3.05;;;9.60;99.90;;;;;;5050004;28;20037;-49
2023/03/22 04:29:47;;;;;;;23.60;3.20;;;9.60;99.90;;;;;;5050307;28;20474;-44
2023/03/22 04:32:21;;;;;;;32.83;4.00;;;9.60;99.90;;;;;;5045318;28;20017;-46
2023/03/22 04:34:51;;;;;;;25.60;3.50;;;9.60;99.90;;;;;;5024731;28;20029;-44
2023/03/22 04:37:18;;;;;;;31.70;5.47;;;9.60;99.90;;;;;;5050569;28;20108;-48
2023/03/22 04:39:44;;;;;;;23.63;2.95;;;9.60;99.90;;;;;;5050536;28;20071;-44
2023/03/22 04:42:10;;;;;;;30.40;4.97;;;9.60;99.90;;;;;;5050173;28;20083;-52
2023/03/22 04:44:36;;;;;;;23.05;3.58;;;9.60;99.90;;;;;;5050265;28;20547;-48
2023/03/22 04:47:02;;;;;;;22.27;2.95;;;9.60;99.90;;;;;;5050414;28;20024;-44
2023/03/22 04:49:28;;;;;;;21.98;3.33;;;9.60;99.90;;;;;;5050427;28;20132;-50
2023/03/22 04:51:54;;;;;;;29.13;4.00;;;9.60;99.90;;;;;;5050215;28;20025;-46
2023/03/22 04:54:21;;;;;;;32.47;3.88;;;9.60;99.90;;;;;;5050273;28;20083;-45
2023/03/22 04:56:47;;;;;;;22.67;3.50;;;9.60;99.90;;;;;;5050262;28;20496;-52
2023/03/22 04:59:13;;;;;;;21.33;3.05;;;9.60;99.90;;;;;;5050226;28;20021;-48
2023/03/22 05:01:41;;;;;;;23.95;3.53;;;9.60;99.90;;;;;;5030658;28;20033;-44
2023/03/22 05:04:07;;;;;;;25.50;3.65;;;9.60;99.90;;;;;;5040130;28;20047;-46
2023/03/22 05:06:33;;;;;;;29.27;3.47;;;9.60;99.90;;;;;;5030701;28;20028;-49
2023/03/22 05:08:59;;;;;;;26.67;3.47;;;9.60;99.90;;;;;;5032335;28;20059;-47
2023/03/22 05:11:26;;;;;;;23.38;4.10;;;9.60;99.90;;;;;;5015977;28;20170;-44
2023/03/22 05:13:56;;;;;;;22.15;3.20;;;9.60;99.90;;;;;;5050151;28;20028;-47
2023/03/22 05:16:23;;;;;;;25.77;4.22;;;9.60;99.90;;;;;;5050254;28;20452;-47
2023/03/22 05:18:53;;;;;;;18.30;3.10;;;9.60;99.90;;;;;;5050061;28;20040;-44
2023/03/22 05:21:27;;;;;;;25.70;3.95;;;9.60;99.90;;;;;;5049707;28;20041;-50
2023/03/22 05:23:56;;;;;;;25.80;3.55;;;9.60;99.90;;;;;;5050049;28;20027;-45
2023/03/22 05:26:25;;;;;;;30.92;4.90;;;9.60;99.90;;;;;;5050114;28;20397;-48
2023/03/22 05:28:54;;;;;;;26.73;3.28;;;9.60;99.90;;;;;;5049949;28;20021;-44
2023/03/22 05:31:21;;;;;;;29.23;4.10;;;9.60;99.90;;;;;;5050008;28;20049;-52
2023/03/22 05:33:51;;;;;;;22.33;5.38;;;9.60;99.90;;;;;;5049959;28;20470;-46
2023/03/22 05:36:17;;;;;;;;;;;9.60;99.90;;;;;;5050169;28;20557;-52
2023/03/22 05:38:43;;;;;;;23.30;3.22;;;9.60;99.90;;;;;;5039708;28;19944;-50
2023/03/22 05:41:09;;;;;;;25.85;3.92;;;9.60;99.90;;;;;;5053561;28;20099;-51
2023/03/22 05:43:35;;;;;;;23.65;3.80;;;9.60;99.90;;;;;;5039344;28;20021;-46
2023/03/22 05:46:08;;;;;;;25.52;3.70;;;9.60;99.90;;;;;;5053635;28;20020;-45
2023/03/22 05:48:35;;;;;;;24.92;3.90;;;9.60;99.90;;;;;;5053334;28;20021;-48
2023/03/22 05:51:02;;;;;;;33.22;4.38;;;9.60;99.90;;;;;;5053360;28;20045;-47
2023/03/22 05:53:28;;;;;;;26.00;4.55;;;9.60;99.90;;;;;;5053566;28;20044;-44
2023/03/22 05:55:59;;;;;;;26.65;4.35;;;9.60;99.90;;;;;;5053235;28;20017;-48
2023/03/22 05:58:29;;;;;;;28.95;4.20;;;9.60;99.90;;;;;;5053313;28;20037;-49
2023/03/22 06:01:04;;;;;;;24.15;3.33;;;9.60;99.90;;;;;;5052789;28;20492;-51
2023/03/22 06:03:30;;;;;;;19.83;3.70;;;9.60;99.90;;;;;;5053149;28;20033;-49
2023/03/22 06:05:56;;;;;;;25.73;3.55;;;9.60;99.90;;;;;;5053221;28;20366;-53
2023/03/22 06:08:22;;;;;;;25.85;5.00;;;9.60;99.90;;;;;;5049585;28;20397;-53
2023/03/22 06:10:51;;;;;;;30.15;4.68;;;9.60;99.90;;;;;;5025691;28;20036;-48
2023/03/22 06:13:17;;;;;;;16.80;2.93;;;9.60;99.90;;;;;;5048779;28;20478;-52
2023/03/22 06:15:44;;;;;;;31.65;4.40;;;9.60;99.90;;;;;;5052629;28;20013;-47
2023/03/22 06:18:10;;;;;;;27.52;3.78;;;9.60;99.90;;;;;;5052454;28;20056;-53
2023/03/22 06:20:35;;;;;;;24.30;3.42;;;9.60;99.90;;;;;;5052871;28;20032;-45
2023/03/22 06:23:01;;;;;;;26.30;3.97;;;9.60;99.90;;;;;;5052505;28;20097;-51
2023/03/22 06:25:27;;;;;;;33.78;4.40;;;9.70;99.90;;;;;;5052949;28;20021;-49
2023/03/22 06:27:53;;;;;;;23.73;3.70;;;9.60;99.90;;;;;;5052633;28;20553;-51
2023/03/22 06:30:18;;;;;;;29.55;3.60;;;9.60;99.90;;;;;;5052489;28;20024;-44
2023/03/22 06:32:44;;;;;;;31.15;4.32;;;9.70;99.90;;;;;;5052317;28;20040;-46
2023/03/22 06:35:10;;;;;;;30.80;4.00;;;9.70;99.90;;;;;;5052681;28;20103;-49
2023/03/22 06:37:35;;;;;;;29.58;3.85;;;9.60;99.90;;;;;;5044874;28;20026;-46
2023/03/22 06:40:01;;;;;;;21.73;3.50;;;9.70;99.90;;;;;;5029902;28;20041;-52
2023/03/22 06:42:29;;;;;;;26.92;3.95;;;9.70;99.90;;;;;;5034381;28;20075;-47
2023/03/22 06:44:55;;;;;;;28.10;3.88;;;9.70;99.90;;;;;;5052367;28;20043;-51
2023/03/22 06:47:21;;;;;;;32.42;5.45;;;9.70;99.90;;;;;;5052080;28;20025;-47
2023/03/22 06:49:47;;;;;;;18.88;3.20;;;9.70;99.90;;;;;;5051811;28;20021;-47
2023/03/22 06:52:12;;;;;;;26.55;3.50;;;9.70;99.90;;;;;;5052269;28;20029;-44
2023/03/22 06:54:38;;;;;;;24.33;3.70;;;9.70;99.90;;;;;;5052140;28;20021;-52
2023/03/22 06:57:04;;;;;;;29.70;4.55;;;9.70;99.90;;;;;;5051989;28;20025;-49
2023/03/22 06:59:29;;;;;;;30.35;4.22;;;9.70;99.90;;;;;;5034058;28;20386;-45
2023/03/22 07:01:55;;;;;;;28.75;4.03;;;9.70;99.90;;;;;;5051878;28;20118;-44
2023/03/22 07:04:20;;;;;;;30.23;4.20;;;9.70;99.90;;;;;;5051975;28;20097;-47
2023/03/22 07:06:46;;;;;;;24.13;3.78;;;9.70;99.90;;;;;;5051570;28;20036;-54
2023/03/22 07:09:12;;;;;;;25.92;3.83;;;9.80;99.90;;;;;;5049267;28;20025;-47
2023/03/22 07:11:37;;;;;;;34.45;5.53;;;9.80;99.90;;;;;;5053903;28;20052;-44
2023/03/22 07:14:03;;;;;;;34.85;5.18;;;9.80;99.90;;;;;;5037064;28;20053;-43
2023/03/22 07:16:29;;;;;;;23.92;3.72;;;9.80;99.90;;;;;;5052161;28;20028;-45
2023/03/22 07:18:55;;;;;;;34.03;5.05;;;9.80;99.90;;;;;;5051729;28;20045;-43
2023/03/22 07:21:21;;;;;;;33.78;3.97;;;9.80;99.90;;;;;;5051504;28;20037;-47
2023/03/22 07:23:46;;;;;;;32.60;4.30;;;9.80;99.90;;;;;;5051817;28;20025;-48
2023/03/22 07:26:12;;;;;;;33.25;4.78;;;9.90;99.90;;;;;;5051501;28;20040;-45
2023/03/22 07:28:40;;;;;;;26.25;3.83;;;9.90;99.90;;;;;;5051567;28;20053;-46
2023/03/22 07:31:10;;;;;;;23.58;4.25;;;9.80;99.90;;;;;;5049311;28;20079;-46
2023/03/22 07:33:36;;;;;;;32.97;4.03;;;9.90;99.90;;;;;;5039971;28;20030;-43
2023/03/22 07:36:03;;;;;;;23.80;5.18;;;9.90;99.90;;;;;;5032922;28;20389;-43
2023/03/22 07:38:29;;;;;;;41.08;5.55;;;9.90;99.90;;;;;;5046343;28;20474;-48
2023/03/22 07:40:55;;;;;;;25.83;3.95;;;9.90;99.90;;;;;;5050507;28;20092;-48
2023/03/22 07:43:21;;;;;;;26.90;4.40;;;9.90;99.90;;;;;;5049062;28;20028;-45
2023/03/22 07:45:51;;;;;;;33.20;4.20;;;9.90;99.90;;;;;;5032393;28;20477;-46
2023/03/22 07:48:18;;;;;;;26.85;3.85;;;9.90;99.90;;;;;;5049996;28;20032;-47
2023/03/22 07:50:44;;;;;;;26.30;3.80;;;10.00;99.90;;;;;;5044775;28;20029;-45
2023/03/22 07:53:10;;;;;;;29.20;4.00;;;10.00;99.90;;;;;;5019142;28;20026;-50
2023/03/22 07:55:36;;;;;;;33.80;4.45;;;10.00;99.90;;;;;;5036323;28;20470;-48
2023/03/22 07:58:03;;;;;;;28.58;4.78;;;10.00;99.90;;;;;;5045268;28;20025;-49
2023/03/22 08:00:28;;;;;;;28.55;3.83;;;10.10;99.90;;;;;;5043910;28;20021;-48
2023/03/22 08:02:55;;;;;;;20.98;3.17;;;10.10;99.90;;;;;;5038919;28;20032;-44
2023/03/22 08:05:21;;;;;;;26.80;4.15;;;10.10;99.90;;;;;;5045392;28;20025;-43
2023/03/22 08:07:47;;;;;;;25.98;3.67;;;10.10;99.90;;;;;;5041612;28;20022;-49
2023/03/22 08:10:14;;;;;;;28.77;3.53;;;10.10;99.90;;;;;;5033123;28;20464;-45
2023/03/22 08:12:40;;;;;;;28.10;4.85;;;10.10;99.90;;;;;;5040192;28;20018;-48
2023/03/22 08:15:07;;;;;;;24.40;3.20;;;10.10;99.90;;;;;;5038333;28;20356;-48
2023/03/22 08:17:32;;;;;;;28.27;3.83;;;10.10;99.90;;;;;;5039023;28;20049;-45
2023/03/22 08:19:58;;;;;;;21.52;3.13;;;10.10;99.90;;;;;;5032983;28;20026;-44
2023/03/22 08:22:24;;;;;;;32.88;3.60;;;10.10;99.90;;;;;;5044648;28;20037;-52
2023/03/22 08:24:53;;;;;;;24.88;3.40;;;10.10;99.90;;;;;;5033623;28;20104;-48
2023/03/22 08:27:19;;;;;;;25.58;4.15;;;10.10;99.90;;;;;;5034479;28;20022;-48
2023/03/22 08:29:46;;;;;;;24.40;3.95;;;10.10;99.90;;;;;;5020470;28;20028;-46
2023/03/22 08:32:12;;;;;;;24.58;3.45;;;10.20;99.90;;;;;;5049286;28;20033;-53
2023/03/22 08:34:39;;;;;;;31.40;3.60;;;10.20;99.90;;;;;;5046028;28;20413;-50
2023/03/22 08:37:06;;;;;;;31.67;4.78;;;10.20;99.90;;;;;;5043822;28;20045;-49
2023/03/22 08:39:32;;;;;;;28.23;4.03;;;10.30;99.90;;;;;;5034537;28;20017;-45
2023/03/22 08:41:58;;;;;;;31.35;3.55;;;10.30;99.90;;;;;;5035401;28;20047;-50
2023/03/22 08:44:24;;;;;;;17.58;3.42;;;10.30;99.90;;;;;;5042631;28;20021;-46
2023/03/22 08:46:50;;;;;;;18.95;3.60;;;10.30;99.90;;;;;;5043247;28;20040;-46
2023/03/22 08:49:16;;;;;;;29.00;3.97;;;10.30;99.90;;;;;;5031554;28;20048;-45
2023/03/22 08:51:42;;;;;;;26.02;4.35;;;10.30;99.90;;;;;;5036362;28;20382;-48
2023/03/22 08:54:08;;;;;;;25.83;3.15;;;10.30;99.90;;;;;;5031897;28;20032;-50
2023/03/22 08:56:36;;;;;;;18.65;2.85;;;10.40;99.90;;;;;;5049907;28;20029;-46
2023/03/22 08:59:06;;;;;;;25.42;3.45;;;10.30;99.90;;;;;;5047294;28;20034;-52
2023/03/22 09:01:33;;;;;;;28.10;3.75;;;10.40;99.90;;;;;;5046790;28;20059;-46
2023/03/22 09:03:59;;;;;;;23.02;3.50;;;10.40;99.90;;;;;;5042784;28;20075;-48
2023/03/22 09:06:25;;;;;;;21.65;3.22;;;10.40;99.90;;;;;;5044515;28;20025;-45
2023/03/22 09:08:55;;;;;;;28.73;4.95;;;10.40;99.90;;;;;;5043871;28;20021;-46
2023/03/22 09:11:21;;;;;;;18.73;3.85;;;10.40;99.90;;;;;;5043321;28;20025;-48
2023/03/22 09:13:48;;;;;;;19.10;2.75;;;10.40;99.90;;;;;;5049396;28;20048;-49
2023/03/22 09:16:15;;;;;;;21.38;3.20;;;10.40;99.90;;;;;;5045923;28;20025;-52
2023/03/22 09:18:41;;;;;;;21.33;3.42;;;10.40;99.90;;;;;;5050213;28;20036;-50
2023/03/22 09:21:08;;;;;;;18.38;2.92;;;10.50;99.90;;;;;;5048169;28;20520;-53
2023/03/22 09:23:35;;;;;;;28.35;3.35;;;10.50;99.90;;;;;;5044386;28;20029;-54
2023/03/22 09:26:02;;;;;;;23.98;3.70;;;10.50;99.90;;;;;;5048683;28;20037;-49
2023/03/22 09:28:28;;;;;;;22.25;3.08;;;10.50;99.90;;;;;;5050751;28;20017;-49
2023/03/22 09:30:53;;;;;;;16.95;2.50;;;10.50;99.90;;;;;;5028509;28;20525;-45
2023/03/22 09:33:19;;;;;;;18.52;2.90;;;10.50;99.90;;;;;;5035144;28;20029;-44
2023/03/22 09:35:45;;;;;;;19.75;3.08;;;10.60;99.90;;;;;;5051411;28;20068;-48
2023/03/22 09:38:11;;;;;;;29.05;3.80;;;10.50;99.90;;;;;;5029987;28;20036;-57
2023/03/22 09:40:45;;;;;;;18.00;2.97;;;10.60;99.90;;;;;;5047073;28;20486;-52
2023/03/22 09:43:12;;;;;;;29.25;3.75;;;10.50;99.90;;;;;;5041207;28;20025;-46
2023/03/22 09:45:42;;;;;;;24.75;2.88;;;10.60;99.90;;;;;;5033867;28;20031;-47
2023/03/22 09:48:21;;;;;;;;;;;10.60;99.90;;;;;;5053875;28;20028;-48
2023/03/22 09:50:50;;;;;;;18.83;2.95;;;10.70;99.90;;;;;;5052469;28;19915;-54
2023/03/22 09:53:16;;;;;;;13.93;3.05;;;10.60;99.90;;;;;;5044968;28;20025;-49
2023/03/22 09:55:53;;;;;;;17.73;2.80;;;10.70;99.90;;;;;;5053326;28;20035;-57
2023/03/22 09:58:29;;;;;;;19.70;2.45;;;10.70;99.90;;;;;;5053443;28;20456;-52
2023/03/22 10:01:00;;;;;;;14.65;2.45;;;10.70;99.90;;;;;;5048349;28;20097;-49
2023/03/22 10:03:52;;;;;;;20.67;2.95;;;10.70;99.90;;;;;;5027617;28;20033;-49
2023/03/22 10:06:22;;;;;;;22.25;3.05;;;10.70;99.90;;;;;;5053016;28;20485;-48
2023/03/22 10:09:03;;;;;;;15.93;2.47;;;10.70;99.90;;;;;;5051347;28;20053;-52
2023/03/22 10:11:40;;;;;;;18.60;2.70;;;10.70;99.90;;;;;;5052712;28;20029;-58
2023/03/22 10:14:19;;;;;;;14.70;2.58;;;10.80;99.90;;;;;;5053010;28;20496;-54
2023/03/22 10:16:46;;;;;;;12.30;2.08;;;10.90;99.90;;;;;;5053246;28;20017;-52
2023/03/22 10:19:19;;;;;;;14.02;2.42;;;10.90;99.90;;;;;;5034897;28;20521;-54
2023/03/22 10:21:47;;;;;;;19.08;2.67;;;10.90;99.90;;;;;;5044584;28;20040;-55
2023/03/22 10:24:24;;;;;;;12.20;2.80;;;10.80;99.90;;;;;;5051966;28;20021;-51
2023/03/22 10:26:50;;;;;;;17.25;2.80;;;10.90;99.90;;;;;;5052789;28;20044;-54
2023/03/22 10:29:40;;;;;;;19.67;2.83;;;10.80;99.90;;;;;;5052691;28;20079;-48
2023/03/22 10:32:35;;;;;;;19.85;3.13;;;10.90;99.90;;;;;;5052454;28;20120;-51
2023/03/22 10:35:01;;;;;;;19.48;2.47;;;10.80;99.90;;;;;;5031838;28;20029;-51
2023/03/22 10:37:32;;;;;;;16.75;2.22;;;10.80;99.90;;;;;;5052697;28;20086;-50
2023/03/22 10:40:05;;;;;;;17.55;2.95;;;10.80;99.90;;;;;;5052780;28;20037;-44
2023/03/22 10:42:33;;;;;;;14.13;2.40;;;10.80;99.90;;;;;;5052760;28;20033;-45
2023/03/22 10:45:13;;;;;;;15.48;2.60;;;10.80;99.90;;;;;;5052704;28;20377;-45
2023/03/22 10:47:49;;;;;;;18.70;3.03;;;10.70;99.90;;;;;;5052518;28;20146;-46
2023/03/22 10:50:22;;;;;;;17.08;2.35;;;10.70;99.90;;;;;;5052457;28;20021;-44
2023/03/22 10:52:56;;;;;;;21.67;3.10;;;10.70;99.90;;;;;;5051937;28;20059;-44
2023/03/22 10:55:24;;;;;;;15.10;2.30;;;10.80;99.90;;;;;;5052417;28;20035;-47
2023/03/22 10:58:11;;;;;;;20.35;3.45;;;10.80;99.90;;;;;;5052015;28;20460;-52
2023/03/22 11:00:37;;;;;;;14.57;3.63;;;10.80;99.90;;;;;;5052091;28;20029;-50
2023/03/22 11:03:05;;;;;;;15.63;2.65;;;10.90;99.90;;;;;;5023560;28;20036;-49
2023/03/22 11:05:31;;;;;;;12.85;2.33;;;10.90;99.90;;;;;;5048962;28;20017;-51
2023/03/22 11:07:57;;;;;;;18.33;2.78;;;11.00;99.90;;;;;;5052365;28;20028;-49
2023/03/22 11:10:26;;;;;;;12.20;2.33;;;11.00;99.90;;;;;;5052157;28;20032;-45
2023/03/22 11:13:07;;;;;;;16.95;2.70;;;11.00;99.90;;;;;;5052025;28;20017;-50
2023/03/22 11:15:37;;;;;;;18.65;3.45;;;11.00;99.90;;;;;;5051906;28;20083;-53
2023/03/22 11:18:14;;;;;;;13.85;2.67;;;11.00;99.90;;;;;;5051675;28;20434;-52
2023/03/22 11:20:50;;;;;;;13.93;2.58;;;11.00;99.90;;;;;;5050842;28;20512;-50
2023/03/22 11:23:18;;;;;;;9.75;2.08;;;11.10;99.90;;;;;;5046871;28;20064;-48
2023/03/22 11:25:48;;;;;;;14.38;2.40;;;11.10;99.90;;;;;;5033672;28;20135;-48
2023/03/22 11:28:20;;;;;;;16.52;2.30;;;11.10;99.90;;;;;;5051856;28;20041;-53
2023/03/22 11:30:59;;;;;;;13.70;2.05;;;11.10;99.90;;;;;;5051589;28;20087;-52
2023/03/22 11:33:25;;;;;;;10.45;1.95;;;11.20;99.90;;;;;;5051538;28;20095;-50
2023/03/22 11:35:59;;;;;;;10.88;1.60;;;11.30;99.90;;;;;;5051482;28;20052;-47
2023/03/22 11:38:37;;;;;;;9.55;2.00;;;11.30;99.90;;;;;;5033559;28;20186;-49
2023/03/22 11:41:24;;;;;;;15.57;1.98;;;11.30;99.90;;;;;;5051387;28;20099;-46
2023/03/22 11:43:54;;;;;;;8.93;1.30;;;11.30;99.90;;;;;;5051439;28;20017;-48
2023/03/22 11:46:20;;;;;;;7.03;1.30;;;11.40;99.90;;;;;;5051401;28;20402;-47
2023/03/22 11:48:49;;;;;;;10.25;1.95;;;11.40;99.90;;;;;;5051088;28;20021;-48
2023/03/22 11:51:25;;;;;;;8.10;1.92;;;11.40;99.90;;;;;;5045947;28;20040;-47
2023/03/22 11:53:58;;;;;;;6.32;1.38;;;11.40;99.90;;;;;;5048090;28;20021;-51
2023/03/22 11:56:28;;;;;;;7.32;1.20;;;11.40;99.90;;;;;;5033452;28;20033;-47
2023/03/22 11:59:12;;;;;;;8.70;1.60;;;11.40;99.90;;;;;;5051022;28;20390;-44
2023/03/22 12:01:50;;;;;;;3.92;1.15;;;11.50;99.90;;;;;;5051012;28;20033;-48
2023/03/22 12:04:21;;;;;;;4.70;1.20;;;11.40;99.90;;;;;;5051148;28;20025;-45
2023/03/22 12:06:48;;;;;;;4.43;1.20;;;11.40;99.90;;;;;;5050912;28;20485;-47
2023/03/22 12:09:16;;;;;;;6.68;1.40;;;11.40;99.90;;;;;;5051025;28;20025;-49
2023/03/22 12:12:00;;;;;;;6.68;1.50;;;11.40;99.90;;;;;;5050919;28;20064;-51
2023/03/22 12:14:39;;;;;;;6.80;1.70;;;11.40;99.90;;;;;;5050761;28;20025;-47
2023/03/22 12:17:50;;;;;;;8.48;1.80;;;11.40;99.90;;;;;;5050796;28;20025;-48
2023/03/22 12:20:34;;;;;;;4.88;1.50;;;11.40;99.90;;;;;;5050812;28;20082;-48
2023/03/22 12:23:01;;;;;;;5.15;1.50;;;11.50;99.90;;;;;;5049195;28;20113;-52
2023/03/22 12:25:32;;;;;;;7.35;1.85;;;11.50;99.90;;;;;;5048974;28;20080;-56
2023/03/22 12:28:12;;;;;;;6.57;2.10;;;11.40;99.90;;;;;;5050324;28;20032;-53
2023/03/22 12:30:57;;;;;;;9.75;2.83;;;11.40;99.90;;;;;;5050652;28;20025;-44
2023/03/22 12:33:27;;;;;;;16.10;2.58;;;11.40;99.90;;;;;;5032543;28;20025;-45
2023/03/22 12:36:02;;;;;;;8.48;2.33;;;11.60;99.90;;;;;;5050593;28;20107;-51
2023/03/22 12:38:45;;;;;;;11.13;2.08;;;11.60;99.90;;;;;;5050280;28;20107;-52
2023/03/22 12:41:22;;;;;;;15.13;3.13;;;11.70;99.90;;;;;;5032832;28;20123;-47
2023/03/22 12:43:55;;;;;;;13.48;2.80;;;11.70;99.90;;;;;;5050672;28;20056;-49
2023/03/22 12:46:32;;;;;;;12.38;2.45;;;11.70;99.90;;;;;;5044824;28;20044;-57
2023/03/22 12:49:20;;;;;;;10.02;2.30;;;11.80;99.90;;;;;;5055111;28;20090;-45
2023/03/22 12:51:47;;;;;;;8.25;2.47;;;11.70;99.90;;;;;;5057364;28;20021;-49
2023/03/22 12:54:16;;;;;;;12.82;2.33;;;11.70;99.90;;;;;;5056286;28;20053;-49
2023/03/22 12:56:44;;;;;;;8.85;2.08;;;11.60;99.90;;;;;;5057948;28;20106;-48
2023/03/22 12:59:30;;;;;;;5.80;1.95;;;11.60;99.90;;;;;;5056862;28;20017;-50